createdAt,value
2019-02-25T00:01:38.736Z,2.20
2019-02-25T00:04:10.875Z,2.20
2019-02-25T00:06:43.300Z,2.20
2019-02-25T00:09:15.954Z,2.20
2019-02-25T00:11:48.001Z,2.20
2019-02-25T00:14:19.788Z,2.10
2019-02-25T00:16:51.668Z,2.10
2019-02-25T00:19:23.117Z,2.10
2019-02-25T00:21:54.790Z,2.10
2019-02-25T00:24:27.775Z,2.10
2019-02-25T00:26:59.036Z,2.00
2019-02-25T00:29:30.961Z,1.90
2019-02-25T00:32:02.834Z,1.80
2019-02-25T00:34:34.463Z,1.80
2019-02-25T00:37:05.599Z,1.70
2019-02-25T00:39:36.775Z,1.70
2019-02-25T00:42:08.041Z,1.70
2019-02-25T00:44:39.573Z,1.60
2019-02-25T00:47:11.346Z,1.60
2019-02-25T00:49:43.302Z,1.50
2019-02-25T00:52:15.400Z,1.50
2019-02-25T00:54:46.647Z,1.50
2019-02-25T00:57:19.119Z,1.40
2019-02-25T00:59:50.578Z,1.40
2019-02-25T01:02:22.053Z,1.40
2019-02-25T01:04:53.865Z,1.40
2019-02-25T01:07:25.950Z,1.40
2019-02-25T01:09:58.388Z,1.40
2019-02-25T01:12:30.810Z,1.40
2019-02-25T01:15:06.170Z,1.40
2019-02-25T01:17:38.701Z,1.40
2019-02-25T01:20:12.374Z,1.30
2019-02-25T01:22:44.872Z,1.40
2019-02-25T01:25:18.836Z,1.30
2019-02-25T01:27:53.062Z,1.30
2019-02-25T01:30:24.934Z,1.30
2019-02-25T01:32:56.187Z,1.30
2019-02-25T01:35:28.490Z,1.30
2019-02-25T01:38:02.720Z,1.30
2019-02-25T01:40:34.153Z,1.30
2019-02-25T01:43:07.281Z,1.30
2019-02-25T01:45:39.476Z,1.30
2019-02-25T01:48:11.074Z,1.20
2019-02-25T01:50:42.344Z,1.10
2019-02-25T01:53:14.517Z,1.10
2019-02-25T01:55:46.414Z,1.10
2019-02-25T01:58:20.414Z,1.00
2019-02-25T02:00:52.194Z,1.00
2019-02-25T02:03:23.082Z,1.00
2019-02-25T02:05:57.499Z,1.00
2019-02-25T02:08:31.933Z,1.00
2019-02-25T02:11:04.503Z,1.00
2019-02-25T02:13:36.875Z,1.00
2019-02-25T02:16:07.926Z,0.90
2019-02-25T02:18:41.978Z,0.90
2019-02-25T02:21:14.119Z,0.90
2019-02-25T02:23:45.470Z,0.90
2019-02-25T02:26:21.243Z,0.80
2019-02-25T02:28:53.213Z,0.80
2019-02-25T02:31:24.440Z,0.90
2019-02-25T02:33:56.218Z,0.90
2019-02-25T02:36:28.704Z,1.00
2019-02-25T02:39:01.373Z,1.00
2019-02-25T02:41:35.174Z,0.90
2019-02-25T02:44:22.802Z,0.90
2019-02-25T02:47:13.304Z,0.90
2019-02-25T02:49:45.823Z,0.90
2019-02-25T02:52:16.678Z,0.80
2019-02-25T02:54:48.251Z,0.90
2019-02-25T02:57:21.557Z,1.00
2019-02-25T02:59:59.535Z,1.00
2019-02-25T03:02:42.590Z,1.00
2019-02-25T03:05:17.763Z,1.00
2019-02-25T03:07:54.182Z,1.00
2019-02-25T03:10:29.320Z,0.90
2019-02-25T03:13:02.813Z,0.90
2019-02-25T03:16:32.785Z,1.00
2019-02-25T03:19:07.755Z,1.00
2019-02-25T03:21:46.910Z,1.00
2019-02-25T03:24:21.783Z,1.00
2019-02-25T03:26:54.207Z,1.00
2019-02-25T03:29:29.234Z,0.90
2019-02-25T03:38:39.830Z,0.80
2019-02-25T03:41:14.456Z,0.80
2019-02-25T03:43:47.704Z,0.80
2019-02-25T03:46:20.272Z,0.80
2019-02-25T03:48:52.135Z,0.80
2019-02-25T03:51:25.439Z,0.80
2019-02-25T03:53:57.152Z,0.70
2019-02-25T03:56:28.811Z,0.70
2019-02-25T03:59:00.595Z,0.70
2019-02-25T04:01:34.021Z,0.70
2019-02-25T04:04:05.809Z,0.70
2019-02-25T04:06:37.657Z,0.70
2019-02-25T04:09:10.983Z,0.70
2019-02-25T04:11:43.022Z,0.70
2019-02-25T04:14:17.282Z,0.70
2019-02-25T04:17:07.384Z,0.70
2019-02-25T04:20:00.989Z,0.60
2019-02-25T04:22:39.955Z,0.60
2019-02-25T04:25:13.461Z,0.60
2019-02-25T04:27:45.980Z,0.60
2019-02-25T04:30:17.673Z,0.60
2019-02-25T04:33:14.038Z,0.50
2019-02-25T04:35:44.371Z,0.50
2019-02-25T04:38:17.450Z,0.50
2019-02-25T04:40:52.598Z,0.50
2019-02-25T04:43:25.134Z,0.50
2019-02-25T04:45:57.529Z,0.40
2019-02-25T04:48:29.936Z,0.40
2019-02-25T04:51:23.307Z,0.40
2019-02-25T04:54:01.661Z,0.40
2019-02-25T04:56:33.080Z,0.30
2019-02-25T04:59:12.713Z,0.30
2019-02-25T05:01:45.959Z,0.30
2019-02-25T05:04:17.553Z,0.30
2019-02-25T05:06:49.438Z,0.30
2019-02-25T05:09:21.068Z,0.30
2019-02-25T05:11:52.250Z,0.30
2019-02-25T05:14:36.817Z,0.40
2019-02-25T05:17:08.227Z,0.40
2019-02-25T05:19:41.197Z,0.30
2019-02-25T05:22:42.210Z,0.30
2019-02-25T05:25:14.980Z,0.30
2019-02-25T05:27:46.683Z,0.30
2019-02-25T05:30:18.402Z,0.30
2019-02-25T05:32:50.098Z,0.30
2019-02-25T05:35:21.233Z,0.20
2019-02-25T05:37:56.226Z,0.20
2019-02-25T05:40:26.898Z,0.20
2019-02-25T05:42:57.393Z,0.20
2019-02-25T05:45:28.886Z,0.20
2019-02-25T05:47:59.726Z,0.20
2019-02-25T05:50:30.822Z,0.20
2019-02-25T05:53:01.183Z,0.30
2019-02-25T05:55:31.746Z,0.40
2019-02-25T05:58:02.489Z,0.40
2019-02-25T06:00:33.993Z,0.40
2019-02-25T06:03:04.635Z,0.40
2019-02-25T06:05:34.953Z,0.40
2019-02-25T06:08:05.360Z,0.40
2019-02-25T06:10:35.882Z,0.30
2019-02-25T06:13:08.251Z,0.30
2019-02-25T06:15:38.712Z,0.30
2019-02-25T06:18:10.372Z,0.30
2019-02-25T06:20:41.630Z,0.40
2019-02-25T06:23:12.441Z,0.40
2019-02-25T06:25:43.075Z,0.30
2019-02-25T06:28:14.713Z,0.30
2019-02-25T06:30:46.608Z,0.30
2019-02-25T06:33:19.020Z,0.30
2019-02-25T06:35:50.969Z,0.30
2019-02-25T06:38:22.538Z,0.30
2019-02-25T06:40:54.032Z,0.30
2019-02-25T06:43:29.869Z,0.30
2019-02-25T06:46:00.944Z,0.40
2019-02-25T06:48:33.313Z,0.50
2019-02-25T06:51:06.386Z,0.50
2019-02-25T06:53:37.311Z,0.60
2019-02-25T06:56:08.554Z,0.60
2019-02-25T06:58:40.639Z,0.70
2019-02-25T07:01:12.345Z,0.70
2019-02-25T07:03:44.840Z,0.80
2019-02-25T07:06:27.390Z,1.00
2019-02-25T07:09:18.261Z,1.00
2019-02-25T07:12:02.206Z,1.00
2019-02-25T07:14:47.370Z,1.10
2019-02-25T07:17:36.541Z,1.20
2019-02-25T07:50:21.824Z,2.30
2019-02-25T07:53:00.338Z,2.50
2019-02-25T07:55:42.459Z,2.60
2019-02-25T07:58:18.741Z,2.60
2019-02-25T08:00:54.622Z,2.70
2019-02-25T08:07:05.952Z,2.90
2019-02-25T08:16:16.607Z,3.50
2019-02-25T08:18:49.439Z,3.70
2019-02-25T08:21:27.547Z,3.80
2019-02-25T08:24:16.918Z,3.90
2019-02-25T08:27:06.596Z,4.00
2019-02-25T08:30:04.162Z,4.10
2019-02-25T08:32:43.701Z,4.20
2019-02-25T08:36:10.554Z,4.30
2019-02-25T08:45:13.336Z,4.70
2019-02-25T08:47:49.708Z,5.00
2019-02-25T08:50:24.238Z,5.50
2019-02-25T08:52:55.714Z,6.10
2019-02-25T08:55:58.299Z,6.60
2019-02-25T09:01:51.752Z,7.00
2019-02-25T09:04:22.609Z,7.10
2019-02-25T09:08:19.564Z,7.20
2019-02-25T09:09:39.426Z,7.40
2019-02-25T09:12:11.836Z,7.80
2019-02-25T09:14:43.015Z,8.10
2019-02-25T09:17:16.242Z,8.40
2019-02-25T09:19:47.115Z,8.80
2019-02-25T09:24:50.711Z,9.60
2019-02-25T09:27:23.909Z,9.90
2019-02-25T09:29:54.936Z,9.90
2019-02-25T09:32:55.269Z,10.00
2019-02-25T09:38:56.912Z,10.60
2019-02-25T09:41:30.264Z,11.10
2019-02-25T09:44:01.564Z,11.40
2019-02-25T09:46:32.903Z,11.60
2019-02-25T09:49:03.607Z,11.80
2019-02-25T09:51:34.590Z,12.10
2019-02-25T09:54:05.907Z,12.20
2019-02-25T09:56:38.180Z,12.00
2019-02-25T09:59:10.385Z,11.90
2019-02-25T10:01:42.507Z,12.10
2019-02-25T10:04:16.031Z,12.30
2019-02-25T10:06:47.408Z,12.60
2019-02-25T10:09:19.109Z,12.80
2019-02-25T10:11:51.572Z,12.90
2019-02-25T10:14:25.187Z,13.10
2019-02-25T10:16:56.115Z,13.10
2019-02-25T10:19:27.412Z,13.10
2019-02-25T10:21:58.889Z,13.10
2019-02-25T10:24:31.692Z,13.20
2019-02-25T10:27:02.100Z,13.30
2019-02-25T10:29:32.561Z,13.50
2019-02-25T10:32:04.853Z,13.80
2019-02-25T10:34:35.511Z,13.90
2019-02-25T10:37:10.889Z,14.00
2019-02-25T10:39:41.213Z,14.30
2019-02-25T10:42:13.079Z,14.40
2019-02-25T10:44:44.980Z,14.30
2019-02-25T10:47:18.988Z,14.40
2019-02-25T10:49:49.792Z,14.70
2019-02-25T10:52:20.946Z,14.60
2019-02-25T10:54:52.456Z,14.50
2019-02-25T10:57:27.203Z,14.50
2019-02-25T10:59:56.980Z,14.60
2019-02-25T11:02:29.860Z,14.50
2019-02-25T11:05:03.396Z,14.50
2019-02-25T11:07:39.365Z,14.60
2019-02-25T11:10:13.971Z,14.60
2019-02-25T11:12:53.845Z,14.70
2019-02-25T11:15:33.761Z,14.80
2019-02-25T11:18:09.336Z,14.50
2019-02-25T11:20:41.256Z,14.50
2019-02-25T11:23:28.658Z,14.70
2019-02-25T11:29:35.551Z,15.00
2019-02-25T11:32:07.936Z,14.70
2019-02-25T11:34:39.979Z,14.60
2019-02-25T11:37:11.600Z,14.80
2019-02-25T11:39:45.198Z,15.00
2019-02-25T11:42:20.344Z,14.90
2019-02-25T11:44:51.795Z,15.00
2019-02-25T11:47:25.043Z,15.40
2019-02-25T11:50:39.075Z,15.60
2019-02-25T11:53:12.526Z,15.60
2019-02-25T11:55:55.908Z,15.50
2019-02-25T11:58:34.249Z,15.30
2019-02-25T12:01:09.111Z,15.20
2019-02-25T12:03:41.661Z,15.30
2019-02-25T12:06:12.574Z,15.30
2019-02-25T12:08:44.709Z,15.20
2019-02-25T12:11:18.170Z,15.20
2019-02-25T12:13:49.355Z,15.10
2019-02-25T12:16:21.781Z,15.10
2019-02-25T12:18:53.767Z,15.40
2019-02-25T12:21:25.983Z,15.30
2019-02-25T12:23:57.962Z,15.30
2019-02-25T12:26:29.109Z,15.50
2019-02-25T12:29:08.491Z,15.50
2019-02-25T12:31:35.900Z,15.50
2019-02-25T12:34:07.815Z,15.20
2019-02-25T12:36:39.051Z,15.40
2019-02-25T12:39:10.022Z,15.40
2019-02-25T12:41:43.137Z,15.30
2019-02-25T12:44:14.419Z,15.30
2019-02-25T12:46:46.312Z,15.20
2019-02-25T12:49:18.058Z,15.00
2019-02-25T12:51:49.928Z,15.00
2019-02-25T12:54:23.653Z,15.00
2019-02-25T12:56:54.784Z,15.00
2019-02-25T13:00:15.771Z,14.80
2019-02-25T13:02:49.074Z,14.80
2019-02-25T13:05:24.863Z,14.70
2019-02-25T13:11:47.677Z,14.60
2019-02-25T13:14:22.834Z,14.60
2019-02-25T13:16:56.773Z,14.70
2019-02-25T13:19:35.342Z,14.70
2019-02-25T13:22:10.276Z,14.70
2019-02-25T13:24:48.574Z,14.80
2019-02-25T13:27:20.593Z,14.80
2019-02-25T13:29:52.693Z,14.70
2019-02-25T13:32:27.793Z,14.70
2019-02-25T13:35:00.448Z,14.70
2019-02-25T13:37:32.679Z,14.50
2019-02-25T13:40:08.925Z,14.40
2019-02-25T13:42:44.897Z,14.30
2019-02-25T13:45:23.786Z,14.40
2019-02-25T13:47:59.522Z,14.40
2019-02-25T13:50:32.875Z,14.50
2019-02-25T13:53:08.297Z,14.50
2019-02-25T13:55:41.057Z,14.40
2019-02-25T13:58:17.495Z,14.30
2019-02-25T14:00:50.617Z,14.20
2019-02-25T14:03:27.248Z,14.10
2019-02-25T14:06:04.878Z,14.00
2019-02-25T14:08:38.705Z,13.90
2019-02-25T14:11:13.168Z,14.00
2019-02-25T14:13:45.257Z,13.90
2019-02-25T14:16:19.688Z,14.00
2019-02-25T14:18:53.071Z,13.90
2019-02-25T14:21:26.696Z,13.80
2019-02-25T14:24:00.624Z,13.90
2019-02-25T14:26:35.227Z,13.90
2019-02-25T14:29:08.700Z,13.70
2019-02-25T14:31:40.906Z,13.70
2019-02-25T14:34:17.778Z,13.60
2019-02-25T14:36:52.473Z,13.60
2019-02-25T14:39:28.443Z,13.40
2019-02-25T14:41:59.269Z,13.40
2019-02-25T14:44:35.215Z,13.50
2019-02-25T14:47:19.325Z,13.50
2019-02-25T14:49:41.081Z,13.50
2019-02-25T14:52:13.591Z,13.50
2019-02-25T14:54:46.247Z,13.50
2019-02-25T14:57:20.389Z,13.40
2019-02-25T14:59:57.073Z,13.40
2019-02-25T15:02:30.438Z,13.50
2019-02-25T15:05:08.645Z,13.40
2019-02-25T15:07:40.636Z,13.40
2019-02-25T15:10:14.070Z,13.30
2019-02-25T15:16:22.744Z,13.20
2019-02-25T15:18:58.591Z,13.10
2019-02-25T15:21:35.492Z,13.10
2019-02-25T15:24:12.202Z,13.00
2019-02-25T15:26:44.385Z,13.00
2019-02-25T15:29:48.951Z,12.90
2019-02-25T15:32:25.888Z,12.80
2019-02-25T15:35:05.259Z,12.70
2019-02-25T15:37:57.339Z,12.60
2019-02-25T15:40:28.365Z,12.70
2019-02-25T15:43:13.194Z,12.70
2019-02-25T15:45:48.475Z,12.80
2019-02-25T15:48:23.590Z,12.70
2019-02-25T15:50:58.582Z,12.70
2019-02-25T15:53:32.615Z,12.70
2019-02-25T15:56:05.985Z,12.60
2019-02-25T15:58:47.045Z,12.60
2019-02-25T16:01:20.246Z,12.70
2019-02-25T16:03:51.988Z,12.60
2019-02-25T16:06:26.988Z,12.50
2019-02-25T16:08:58.785Z,12.40
2019-02-25T16:11:34.308Z,12.30
2019-02-25T16:14:07.183Z,12.20
2019-02-25T16:16:38.727Z,12.20
2019-02-25T16:19:13.545Z,12.10
2019-02-25T16:21:45.372Z,12.10
2019-02-25T16:24:18.594Z,12.00
2019-02-25T16:26:49.857Z,11.80
2019-02-25T16:29:22.406Z,11.60
2019-02-25T16:31:55.199Z,11.40
2019-02-25T16:34:27.213Z,11.30
2019-02-25T16:37:00.219Z,11.10
2019-02-25T16:39:31.396Z,11.10
2019-02-25T16:42:02.950Z,11.00
2019-02-25T16:44:35.064Z,10.90
2019-02-25T16:47:07.896Z,10.80
2019-02-25T16:49:42.219Z,10.80
2019-02-25T16:52:15.815Z,10.70
2019-02-25T16:54:46.839Z,10.50
2019-02-25T16:57:18.582Z,10.30
2019-02-25T16:59:53.327Z,10.10
2019-02-25T17:02:23.988Z,10.10
2019-02-25T17:04:55.624Z,9.90
2019-02-25T17:07:32.687Z,9.80
2019-02-25T17:10:08.086Z,9.90
2019-02-25T17:12:41.350Z,9.70
2019-02-25T17:15:20.847Z,9.70
2019-02-25T17:18:00.341Z,9.60
2019-02-25T17:20:33.772Z,9.40
2019-02-25T17:23:10.266Z,9.40
2019-02-25T17:25:46.592Z,9.30
2019-02-25T17:28:20.327Z,9.30
2019-02-25T17:30:57.940Z,9.20
2019-02-25T17:33:32.604Z,9.30
2019-02-25T17:36:09.769Z,9.30
2019-02-25T17:38:42.789Z,9.40
2019-02-25T17:41:15.689Z,9.30
2019-02-25T17:43:49.741Z,9.30
2019-02-25T17:46:28.731Z,9.20
2019-02-25T17:49:01.260Z,9.10
2019-02-25T17:51:35.796Z,9.10
2019-02-25T17:54:10.127Z,8.90
2019-02-25T17:56:43.131Z,8.80
2019-02-25T17:59:20.679Z,8.60
2019-02-25T18:01:56.326Z,8.50
2019-02-25T18:04:30.474Z,8.40
2019-02-25T18:07:05.363Z,8.20
2019-02-25T18:09:39.998Z,8.10
2019-02-25T18:12:14.779Z,8.00
2019-02-25T18:14:50.772Z,8.00
2019-02-25T18:17:24.640Z,7.80
2019-02-25T18:19:59.113Z,7.80
2019-02-25T18:22:33.212Z,7.70
2019-02-25T18:25:10.243Z,7.70
2019-02-25T18:27:43.939Z,7.50
2019-02-25T18:30:24.504Z,7.50
2019-02-25T18:33:00.971Z,7.40
2019-02-25T18:35:36.846Z,7.50
2019-02-25T18:38:13.450Z,7.40
2019-02-25T18:40:51.330Z,7.20
2019-02-25T18:43:28.254Z,7.10
2019-02-25T18:46:05.025Z,7.10
2019-02-25T18:48:56.391Z,7.00
2019-02-25T18:51:45.696Z,6.90
2019-02-25T18:54:36.948Z,6.90
2019-02-25T18:57:18.850Z,6.80
2019-02-25T18:59:51.644Z,6.80
2019-02-25T19:02:23.411Z,6.80
2019-02-25T19:04:54.375Z,6.70
2019-02-25T19:07:27.312Z,6.60
2019-02-25T19:09:58.431Z,6.50
2019-02-25T19:12:31.629Z,6.50
2019-02-25T19:15:04.743Z,6.40
2019-02-25T19:17:37.344Z,6.40
2019-02-25T19:20:11.701Z,6.30
2019-02-25T19:22:44.617Z,6.30
2019-02-25T19:25:25.300Z,6.20
2019-02-25T19:27:58.932Z,6.20
2019-02-25T19:30:32.113Z,6.10
2019-02-25T19:33:11.016Z,6.00
2019-02-25T19:35:40.858Z,5.90
2019-02-25T19:38:14.634Z,5.90
2019-02-25T19:40:51.293Z,5.90
2019-02-25T19:43:21.091Z,6.00
2019-02-25T19:45:53.027Z,6.00
2019-02-25T19:48:28.684Z,5.90
2019-02-25T19:51:00.914Z,5.80
2019-02-25T19:53:35.830Z,5.70
2019-02-25T19:56:05.462Z,5.60
2019-02-25T19:58:39.247Z,5.60
2019-02-25T20:01:11.069Z,5.50
2019-02-25T20:03:45.177Z,5.40
2019-02-25T20:06:18.602Z,5.40
2019-02-25T20:08:51.581Z,5.30
2019-02-25T20:11:25.829Z,5.20
2019-02-25T20:14:00.956Z,5.20
2019-02-25T20:16:32.954Z,5.20
2019-02-25T20:19:06.360Z,5.20
2019-02-25T20:21:38.728Z,5.10
2019-02-25T20:24:14.448Z,5.10
2019-02-25T20:26:48.605Z,5.20
2019-02-25T20:29:19.554Z,5.10
2019-02-25T20:31:51.779Z,5.00
2019-02-25T20:34:32.097Z,4.90
2019-02-25T20:37:06.903Z,4.80
2019-02-25T20:39:40.473Z,4.70
2019-02-25T20:42:17.299Z,4.60
2019-02-25T20:44:52.716Z,4.60
2019-02-25T20:47:22.747Z,4.60
2019-02-25T20:49:56.092Z,4.60
2019-02-25T20:52:28.150Z,4.50
2019-02-25T20:55:01.073Z,4.50
2019-02-25T20:57:33.768Z,4.40
2019-02-25T21:00:05.793Z,4.40
2019-02-25T21:02:37.563Z,4.30
2019-02-25T21:05:14.075Z,4.20
2019-02-25T21:07:45.515Z,4.20
2019-02-25T21:10:20.479Z,4.10
2019-02-25T21:12:53.040Z,4.00
2019-02-25T21:15:26.377Z,4.00
2019-02-25T21:17:59.930Z,3.90
2019-02-25T21:20:31.434Z,3.80
2019-02-25T21:23:05.548Z,3.80
2019-02-25T21:29:02.524Z,3.70
2019-02-25T21:31:35.534Z,3.70
2019-02-25T21:34:07.461Z,3.70
2019-02-25T21:36:40.382Z,3.70
2019-02-25T21:39:14.533Z,3.60
2019-02-25T21:41:45.965Z,3.60
2019-02-25T21:44:19.113Z,3.70
2019-02-25T21:46:52.239Z,3.70
2019-02-25T21:49:24.970Z,3.70
2019-02-25T21:52:00.251Z,3.70
2019-02-25T21:54:33.934Z,3.70
2019-02-25T21:57:07.483Z,3.70
2019-02-25T21:59:44.768Z,3.60
2019-02-25T22:02:24.203Z,3.60
2019-02-25T22:04:56.620Z,3.50
2019-02-25T22:07:29.465Z,3.40
2019-02-25T22:10:00.925Z,3.30
2019-02-25T22:12:35.226Z,3.30
2019-02-25T22:15:08.555Z,3.30
2019-02-25T22:17:44.025Z,3.20
2019-02-25T22:20:16.667Z,3.10
2019-02-25T22:22:52.357Z,3.00
2019-02-25T22:25:24.411Z,2.90
2019-02-25T22:27:56.807Z,3.00
2019-02-25T22:30:28.381Z,3.00
2019-02-25T22:33:02.993Z,3.00
2019-02-25T22:35:37.363Z,3.00
2019-02-25T22:38:08.999Z,3.00
2019-02-25T22:40:41.984Z,3.00
2019-02-25T22:43:14.204Z,3.10
2019-02-25T22:45:49.179Z,3.10
2019-02-25T22:48:23.195Z,3.10
2019-02-25T22:51:00.021Z,3.10
2019-02-25T22:53:36.634Z,3.00
2019-02-25T22:59:44.607Z,3.00
2019-02-25T23:02:16.797Z,3.00
2019-02-25T23:04:51.822Z,3.00
2019-02-25T23:10:51.514Z,2.90
2019-02-25T23:13:27.357Z,2.90
2019-02-25T23:15:59.650Z,2.90
2019-02-25T23:18:32.601Z,2.90
2019-02-25T23:21:04.438Z,2.90
2019-02-25T23:23:37.482Z,2.90
2019-02-25T23:26:10.434Z,2.90
2019-02-25T23:28:43.980Z,2.80
2019-02-25T23:31:16.074Z,2.80
2019-02-25T23:33:48.965Z,2.70
2019-02-25T23:36:26.437Z,2.70
2019-02-25T23:38:57.155Z,2.80
2019-02-25T23:41:32.139Z,2.70
2019-02-25T23:44:07.131Z,2.80
2019-02-25T23:46:40.741Z,2.80
2019-02-25T23:49:13.318Z,2.90
2019-02-25T23:51:50.678Z,2.90
2019-02-25T23:54:23.257Z,3.00
2019-02-25T23:57:23.778Z,3.00
